PTFLB SSSS-SBFL
Flight info
| Callsign | PTFLB |
|---|---|
| Flight time | 0h 42m |
| Altitude | 6000 |
| Route | GESDA DCT DIMOG |
| Aircraft | DA62/L-SDFGRY/C |
Departure
| Time | 2026-04-16 18:04 |
|---|---|
| Airport | São Francisco do Sul Airport (SSSS) |
Arrival
| Time | 2026-04-16 18:46 |
|---|---|
| Airport | Hercílio Luz International Airport (SBFL) |
| Time | Latitude | Longitude | Altitude | Speed | Heading |
|---|---|---|---|---|---|
| 2026-04-16 17:52 | -26.21752 | -48.56766 | 38 ft | 0 kts | 253° |
| 2026-04-16 18:01 | -26.21754 | -48.56773 | 38 ft | 3 kts | 251° |
| 2026-04-16 18:01 | -26.21761 | -48.56790 | 39 ft | 3 kts | 238° |
| 2026-04-16 18:01 | -26.21830 | -48.56788 | 46 ft | 16 kts | 164° |
| 2026-04-16 18:01 | -26.21956 | -48.56744 | 51 ft | 21 kts | 162° |
| 2026-04-16 18:02 | -26.22105 | -48.56692 | 51 ft | 22 kts | 161° |
| 2026-04-16 18:02 | -26.22159 | -48.56679 | 52 ft | 1 kts | 342° |
| 2026-04-16 18:02 | -26.22109 | -48.56698 | 52 ft | 30 kts | 344° |
| 2026-04-16 18:03 | -26.21739 | -48.56823 | 39 ft | 76 kts | 346° |
| 2026-04-16 18:03 | -26.21247 | -48.56990 | 221 ft | 74 kts | 349° |
| 2026-04-16 18:03 | -26.20726 | -48.57163 | 395 ft | 77 kts | 345° |
| 2026-04-16 18:03 | -26.20212 | -48.57349 | 581 ft | 80 kts | 347° |
| 2026-04-16 18:04 | -26.19676 | -48.57558 | 803 ft | 87 kts | 336° |
| 2026-04-16 18:04 | -26.19317 | -48.58169 | 1006 ft | 104 kts | 278° |
| 2026-04-16 18:04 | -26.19579 | -48.58905 | 1286 ft | 108 kts | 219° |
| 2026-04-16 18:04 | -26.20247 | -48.59318 | 1541 ft | 111 kts | 211° |
| 2026-04-16 18:05 | -26.20897 | -48.59826 | 1805 ft | 115 kts | 215° |
| 2026-04-16 18:05 | -26.21532 | -48.60350 | 2106 ft | 113 kts | 214° |
| 2026-04-16 18:05 | -26.22183 | -48.60861 | 2372 ft | 115 kts | 210° |
| 2026-04-16 18:05 | -26.22886 | -48.61314 | 2618 ft | 120 kts | 208° |
| 2026-04-16 18:06 | -26.23615 | -48.61794 | 2859 ft | 119 kts | 209° |
| 2026-04-16 18:06 | -26.24311 | -48.62266 | 3064 ft | 116 kts | 210° |
| 2026-04-16 18:06 | -26.25018 | -48.62751 | 3202 ft | 120 kts | 210° |
| 2026-04-16 18:06 | -26.25536 | -48.63109 | 3307 ft | 122 kts | 210° |
| 2026-04-16 18:07 | -26.26465 | -48.63755 | 3494 ft | 124 kts | 211° |
| 2026-04-16 18:07 | -26.27202 | -48.64270 | 3637 ft | 126 kts | 211° |
| 2026-04-16 18:08 | -26.27446 | -48.64440 | 3685 ft | 126 kts | 211° |
| 2026-04-16 18:08 | -26.28157 | -48.64938 | 3821 ft | 127 kts | 212° |
| 2026-04-16 18:08 | -26.28916 | -48.65470 | 3962 ft | 128 kts | 212° |
| 2026-04-16 18:09 | -26.29681 | -48.66004 | 4100 ft | 129 kts | 212° |
| 2026-04-16 18:09 | -26.30447 | -48.66542 | 4238 ft | 130 kts | 213° |
| 2026-04-16 18:09 | -26.31217 | -48.67081 | 4380 ft | 130 kts | 213° |
| 2026-04-16 18:09 | -26.31988 | -48.67622 | 4520 ft | 131 kts | 213° |
| 2026-04-16 18:10 | -26.32761 | -48.68164 | 4662 ft | 131 kts | 214° |
| 2026-04-16 18:10 | -26.33545 | -48.68714 | 4806 ft | 132 kts | 214° |
| 2026-04-16 18:10 | -26.34311 | -48.69253 | 4950 ft | 132 kts | 214° |
| 2026-04-16 18:10 | -26.35093 | -48.69799 | 5093 ft | 132 kts | 214° |
| 2026-04-16 18:11 | -26.35879 | -48.70351 | 5236 ft | 132 kts | 214° |
| 2026-04-16 18:11 | -26.36655 | -48.70895 | 5376 ft | 132 kts | 215° |
| 2026-04-16 18:11 | -26.37428 | -48.71435 | 5515 ft | 131 kts | 216° |
| 2026-04-16 18:11 | -26.38211 | -48.71986 | 5659 ft | 131 kts | 216° |
| 2026-04-16 18:12 | -26.38978 | -48.72525 | 5803 ft | 131 kts | 216° |
| 2026-04-16 18:12 | -26.39756 | -48.73072 | 5948 ft | 131 kts | 216° |
| 2026-04-16 18:12 | -26.40540 | -48.73622 | 6025 ft | 136 kts | 217° |
| 2026-04-16 18:12 | -26.41380 | -48.74213 | 6043 ft | 144 kts | 216° |
| 2026-04-16 18:13 | -26.42218 | -48.74804 | 6038 ft | 143 kts | 216° |
| 2026-04-16 18:13 | -26.43062 | -48.75396 | 6038 ft | 141 kts | 216° |
| 2026-04-16 18:13 | -26.43894 | -48.75978 | 6038 ft | 140 kts | 216° |
| 2026-04-16 18:13 | -26.44729 | -48.76565 | 6044 ft | 142 kts | 216° |
| 2026-04-16 18:14 | -26.45566 | -48.77154 | 6043 ft | 145 kts | 216° |
| 2026-04-16 18:14 | -26.46436 | -48.77766 | 6022 ft | 149 kts | 216° |
| 2026-04-16 18:14 | -26.47321 | -48.78388 | 6009 ft | 151 kts | 216° |
| 2026-04-16 18:14 | -26.48215 | -48.79015 | 6002 ft | 152 kts | 217° |
| 2026-04-16 18:15 | -26.49109 | -48.79646 | 6000 ft | 152 kts | 216° |
| 2026-04-16 18:15 | -26.50011 | -48.80279 | 5998 ft | 152 kts | 217° |
| 2026-04-16 18:15 | -26.50901 | -48.80906 | 5992 ft | 151 kts | 217° |
| 2026-04-16 18:15 | -26.51800 | -48.81539 | 5994 ft | 151 kts | 216° |
| 2026-04-16 18:16 | -26.52693 | -48.82167 | 5996 ft | 151 kts | 216° |
| 2026-04-16 18:16 | -26.53587 | -48.82796 | 5994 ft | 152 kts | 216° |
| 2026-04-16 18:16 | -26.54458 | -48.83410 | 5992 ft | 152 kts | 216° |
| 2026-04-16 18:16 | -26.55348 | -48.84036 | 5991 ft | 152 kts | 217° |
| 2026-04-16 18:17 | -26.56251 | -48.84671 | 5993 ft | 152 kts | 216° |
| 2026-04-16 18:17 | -26.57139 | -48.85300 | 5988 ft | 152 kts | 216° |
| 2026-04-16 18:17 | -26.58013 | -48.85914 | 5990 ft | 152 kts | 216° |
| 2026-04-16 18:17 | -26.58911 | -48.86544 | 5988 ft | 151 kts | 216° |
| 2026-04-16 18:18 | -26.59807 | -48.87177 | 5993 ft | 151 kts | 217° |
| 2026-04-16 18:18 | -26.60693 | -48.87801 | 5994 ft | 151 kts | 217° |
| 2026-04-16 18:18 | -26.61592 | -48.88434 | 5992 ft | 151 kts | 217° |
| 2026-04-16 18:18 | -26.62479 | -48.89057 | 5995 ft | 153 kts | 217° |
| 2026-04-16 18:19 | -26.63395 | -48.89705 | 6001 ft | 155 kts | 217° |
| 2026-04-16 18:19 | -26.64320 | -48.90360 | 6000 ft | 157 kts | 216° |
| 2026-04-16 18:19 | -26.65242 | -48.91009 | 6002 ft | 158 kts | 217° |
| 2026-04-16 18:19 | -26.66154 | -48.91654 | 6006 ft | 158 kts | 216° |
| 2026-04-16 18:20 | -26.67084 | -48.92310 | 6008 ft | 159 kts | 217° |
| 2026-04-16 18:20 | -26.68021 | -48.92971 | 6006 ft | 160 kts | 217° |
| 2026-04-16 18:20 | -26.68969 | -48.93641 | 6007 ft | 160 kts | 216° |
| 2026-04-16 18:20 | -26.69907 | -48.94303 | 6008 ft | 160 kts | 216° |
| 2026-04-16 18:21 | -26.70864 | -48.94980 | 6009 ft | 160 kts | 216° |
| 2026-04-16 18:21 | -26.71805 | -48.95643 | 6008 ft | 161 kts | 217° |
| 2026-04-16 18:21 | -26.72760 | -48.96318 | 6009 ft | 161 kts | 216° |
| 2026-04-16 18:21 | -26.73713 | -48.96990 | 6007 ft | 161 kts | 216° |
| 2026-04-16 18:22 | -26.74666 | -48.97661 | 6007 ft | 160 kts | 215° |
| 2026-04-16 18:22 | -26.75761 | -48.97850 | 6007 ft | 166 kts | 169° |
| 2026-04-16 18:22 | -26.76872 | -48.97423 | 6014 ft | 167 kts | 160° |
| 2026-04-16 18:22 | -26.77950 | -48.96932 | 6015 ft | 168 kts | 159° |
| 2026-04-16 18:23 | -26.79040 | -48.96422 | 6013 ft | 169 kts | 159° |
| 2026-04-16 18:23 | -26.80123 | -48.95913 | 6007 ft | 169 kts | 159° |
| 2026-04-16 18:23 | -26.81211 | -48.95398 | 6007 ft | 169 kts | 159° |
| 2026-04-16 18:23 | -26.82301 | -48.94884 | 6007 ft | 169 kts | 159° |
| 2026-04-16 18:24 | -26.83380 | -48.94375 | 6010 ft | 169 kts | 159° |
| 2026-04-16 18:24 | -26.84482 | -48.93854 | 6010 ft | 169 kts | 158° |
| 2026-04-16 18:24 | -26.85568 | -48.93339 | 6008 ft | 169 kts | 159° |
| 2026-04-16 18:24 | -26.86653 | -48.92825 | 6006 ft | 169 kts | 158° |
| 2026-04-16 18:25 | -26.87744 | -48.92308 | 6006 ft | 169 kts | 158° |
| 2026-04-16 18:25 | -26.88835 | -48.91790 | 6006 ft | 169 kts | 158° |
| 2026-04-16 18:25 | -26.89906 | -48.91281 | 6008 ft | 168 kts | 158° |
| 2026-04-16 18:25 | -26.91005 | -48.90760 | 6005 ft | 168 kts | 159° |
| 2026-04-16 18:26 | -26.92087 | -48.90245 | 6010 ft | 168 kts | 159° |
| 2026-04-16 18:26 | -26.93167 | -48.89733 | 6008 ft | 168 kts | 159° |
| 2026-04-16 18:26 | -26.94256 | -48.89216 | 6009 ft | 169 kts | 159° |
| 2026-04-16 18:26 | -26.95325 | -48.88708 | 6006 ft | 169 kts | 159° |
| 2026-04-16 18:27 | -26.96414 | -48.88190 | 6001 ft | 169 kts | 159° |
| 2026-04-16 18:27 | -26.97512 | -48.87671 | 6002 ft | 170 kts | 159° |
| 2026-04-16 18:27 | -26.98596 | -48.87156 | 6003 ft | 170 kts | 159° |
| 2026-04-16 18:27 | -26.99690 | -48.86636 | 6005 ft | 170 kts | 159° |
| 2026-04-16 18:28 | -27.00789 | -48.86113 | 5997 ft | 170 kts | 159° |
| 2026-04-16 18:28 | -27.01875 | -48.85597 | 5999 ft | 169 kts | 159° |
| 2026-04-16 18:28 | -27.02968 | -48.85077 | 6002 ft | 169 kts | 159° |
| 2026-04-16 18:28 | -27.04067 | -48.84553 | 6000 ft | 169 kts | 159° |
| 2026-04-16 18:29 | -27.05153 | -48.84039 | 5998 ft | 169 kts | 159° |
| 2026-04-16 18:29 | -27.06246 | -48.83518 | 5999 ft | 169 kts | 159° |
| 2026-04-16 18:29 | -27.07320 | -48.83007 | 5996 ft | 169 kts | 159° |
| 2026-04-16 18:29 | -27.08413 | -48.82488 | 5998 ft | 169 kts | 159° |
| 2026-04-16 18:30 | -27.09505 | -48.81965 | 5999 ft | 169 kts | 159° |
| 2026-04-16 18:30 | -27.10589 | -48.81450 | 5994 ft | 169 kts | 159° |
| 2026-04-16 18:30 | -27.11666 | -48.80937 | 5993 ft | 168 kts | 159° |
| 2026-04-16 18:30 | -27.12753 | -48.80418 | 5992 ft | 168 kts | 159° |
| 2026-04-16 18:31 | -27.13838 | -48.79900 | 5991 ft | 169 kts | 159° |
| 2026-04-16 18:31 | -27.14909 | -48.79391 | 5988 ft | 169 kts | 159° |
| 2026-04-16 18:31 | -27.16011 | -48.78866 | 5987 ft | 169 kts | 159° |
| 2026-04-16 18:31 | -27.17094 | -48.78350 | 5982 ft | 169 kts | 159° |
| 2026-04-16 18:32 | -27.18185 | -48.77829 | 5978 ft | 169 kts | 159° |
| 2026-04-16 18:32 | -27.19266 | -48.77313 | 5975 ft | 169 kts | 159° |
| 2026-04-16 18:32 | -27.20350 | -48.76796 | 5979 ft | 168 kts | 159° |
| 2026-04-16 18:32 | -27.21429 | -48.76282 | 5980 ft | 168 kts | 159° |
| 2026-04-16 18:33 | -27.22503 | -48.75768 | 5979 ft | 168 kts | 159° |
| 2026-04-16 18:33 | -27.23595 | -48.75244 | 5977 ft | 169 kts | 159° |
| 2026-04-16 18:33 | -27.24667 | -48.74730 | 5976 ft | 169 kts | 159° |
| 2026-04-16 18:33 | -27.25759 | -48.74208 | 5976 ft | 168 kts | 159° |
| 2026-04-16 18:34 | -27.26832 | -48.73695 | 5976 ft | 168 kts | 159° |
| 2026-04-16 18:34 | -27.27919 | -48.73176 | 5981 ft | 168 kts | 159° |
| 2026-04-16 18:34 | -27.29009 | -48.72657 | 5982 ft | 169 kts | 161° |
| 2026-04-16 18:34 | -27.30113 | -48.72237 | 5980 ft | 168 kts | 165° |
| 2026-04-16 18:35 | -27.31247 | -48.71833 | 5980 ft | 168 kts | 165° |
| 2026-04-16 18:35 | -27.32361 | -48.71435 | 5978 ft | 168 kts | 165° |
| 2026-04-16 18:35 | -27.33475 | -48.71037 | 5974 ft | 168 kts | 165° |
| 2026-04-16 18:35 | -27.34608 | -48.70632 | 5976 ft | 168 kts | 165° |
| 2026-04-16 18:36 | -27.35719 | -48.70233 | 5977 ft | 168 kts | 165° |
| 2026-04-16 18:36 | -27.36845 | -48.69831 | 5978 ft | 168 kts | 164° |
| 2026-04-16 18:36 | -27.37956 | -48.69432 | 5980 ft | 168 kts | 165° |
| 2026-04-16 18:36 | -27.39072 | -48.69032 | 5975 ft | 168 kts | 165° |
| 2026-04-16 18:37 | -27.40187 | -48.68631 | 5978 ft | 168 kts | 165° |
| 2026-04-16 18:37 | -27.41317 | -48.68225 | 5979 ft | 168 kts | 165° |
| 2026-04-16 18:37 | -27.42430 | -48.67826 | 5981 ft | 168 kts | 165° |
| 2026-04-16 18:37 | -27.43465 | -48.67212 | 5984 ft | 169 kts | 143° |
| 2026-04-16 18:38 | -27.44401 | -48.66414 | 5989 ft | 169 kts | 143° |
| 2026-04-16 18:38 | -27.45342 | -48.65596 | 5968 ft | 171 kts | 143° |
| 2026-04-16 18:38 | -27.46311 | -48.64763 | 5746 ft | 177 kts | 143° |
| 2026-04-16 18:38 | -27.47289 | -48.63931 | 5493 ft | 174 kts | 143° |
| 2026-04-16 18:39 | -27.48251 | -48.63125 | 5238 ft | 172 kts | 143° |
| 2026-04-16 18:39 | -27.49221 | -48.62324 | 4983 ft | 170 kts | 143° |
| 2026-04-16 18:39 | -27.50173 | -48.61554 | 4732 ft | 170 kts | 143° |
| 2026-04-16 18:39 | -27.51133 | -48.60788 | 4479 ft | 169 kts | 143° |
| 2026-04-16 18:40 | -27.52135 | -48.60090 | 4217 ft | 169 kts | 158° |
| 2026-04-16 18:40 | -27.53250 | -48.59669 | 3970 ft | 169 kts | 160° |
| 2026-04-16 18:40 | -27.54382 | -48.59264 | 3716 ft | 169 kts | 161° |
| 2026-04-16 18:40 | -27.55486 | -48.58883 | 3468 ft | 161 kts | 161° |
| 2026-04-16 18:41 | -27.56541 | -48.58531 | 3215 ft | 154 kts | 160° |
| 2026-04-16 18:41 | -27.57524 | -48.58167 | 2996 ft | 146 kts | 156° |
| 2026-04-16 18:41 | -27.58470 | -48.57730 | 2668 ft | 147 kts | 151° |
| 2026-04-16 18:41 | -27.59430 | -48.57363 | 2391 ft | 147 kts | 163° |
| 2026-04-16 18:42 | -27.60447 | -48.57103 | 2098 ft | 149 kts | 164° |
| 2026-04-16 18:42 | -27.61213 | -48.56983 | 1881 ft | 152 kts | 171° |
| 2026-04-16 18:42 | -27.62270 | -48.56853 | 1626 ft | 151 kts | 169° |
| 2026-04-16 18:42 | -27.63307 | -48.56674 | 1368 ft | 150 kts | 168° |
| 2026-04-16 18:43 | -27.64329 | -48.56480 | 1116 ft | 144 kts | 173° |
| 2026-04-16 18:43 | -27.65261 | -48.56424 | 968 ft | 122 kts | 178° |
| 2026-04-16 18:43 | -27.66049 | -48.56424 | 1039 ft | 105 kts | 180° |
| 2026-04-16 18:43 | -27.66774 | -48.56474 | 1042 ft | 103 kts | 185° |
| 2026-04-16 18:44 | -27.67500 | -48.56559 | 1048 ft | 107 kts | 187° |
| 2026-04-16 18:44 | -27.68241 | -48.56669 | 1077 ft | 106 kts | 187° |
| 2026-04-16 18:44 | -27.68929 | -48.56641 | 889 ft | 93 kts | 152° |
| 2026-04-16 18:44 | -27.69308 | -48.56102 | 681 ft | 84 kts | 98° |
| 2026-04-16 18:45 | -27.69071 | -48.55597 | 585 ft | 82 kts | 11° |
| 2026-04-16 18:45 | -27.68482 | -48.55611 | 429 ft | 81 kts | 0° |
| 2026-04-16 18:45 | -27.67930 | -48.55523 | 227 ft | 81 kts | 10° |
| 2026-04-16 18:45 | -27.67389 | -48.55395 | 48 ft | 74 kts | 9° |
| 2026-04-16 18:46 | -27.66969 | -48.55300 | 36 ft | 51 kts | 14° |
| 2026-04-16 18:46 | -27.66737 | -48.55241 | 34 ft | 16 kts | 32° |
| 2026-04-16 18:46 | -27.66751 | -48.55132 | 33 ft | 20 kts | 120° |
| 2026-04-16 18:46 | -27.66831 | -48.54984 | 30 ft | 20 kts | 120° |
| 2026-04-16 18:47 | -27.66904 | -48.54848 | 30 ft | 20 kts | 122° |
| 2026-04-16 18:47 | -27.66978 | -48.54710 | 30 ft | 20 kts | 121° |
| 2026-04-16 18:47 | -27.67054 | -48.54598 | 30 ft | 15 kts | 174° |
| 2026-04-16 18:47 | -27.67152 | -48.54624 | 30 ft | 16 kts | 163° |
| 2026-04-16 18:48 | -27.67194 | -48.54594 | 30 ft | 10 kts | 133° |
| 2026-04-16 18:48 | -27.67238 | -48.54510 | 29 ft | 14 kts | 119° |
| 2026-04-16 18:48 | -27.67262 | -48.54446 | 29 ft | 3 kts | 20° |
| 2026-04-16 18:48 | -27.67234 | -48.54429 | 29 ft | 5 kts | 31° |
| 2026-04-16 18:49 | -27.67223 | -48.54422 | 29 ft | 0 kts | 31° |